createdAt,value
2022-09-13T00:00:17.984Z,0
2022-09-13T00:01:17.971Z,0
2022-09-13T00:02:18.003Z,0
2022-09-13T00:03:17.975Z,0
2022-09-13T00:04:17.930Z,0
2022-09-13T00:05:17.926Z,0
2022-09-13T00:06:17.915Z,0
2022-09-13T00:07:17.911Z,0
2022-09-13T00:08:17.899Z,0
2022-09-13T00:09:17.909Z,0
2022-09-13T00:10:17.877Z,0
2022-09-13T00:11:25.483Z,0
2022-09-13T00:12:17.852Z,0
2022-09-13T00:13:17.834Z,0
2022-09-13T00:14:17.825Z,0
2022-09-13T00:15:17.819Z,0
2022-09-13T00:16:17.810Z,0
2022-09-13T00:17:17.801Z,0
2022-09-13T00:18:17.790Z,0
2022-09-13T00:19:17.775Z,0
2022-09-13T00:20:17.763Z,0
2022-09-13T00:21:17.757Z,0
2022-09-13T00:22:17.744Z,0
2022-09-13T00:23:17.734Z,0
2022-09-13T00:24:17.737Z,0
2022-09-13T00:25:17.709Z,0
2022-09-13T00:26:17.698Z,0
2022-09-13T00:27:17.688Z,0
2022-09-13T00:28:17.680Z,0
2022-09-13T00:29:17.665Z,0
2022-09-13T00:30:17.659Z,0
2022-09-13T00:31:17.646Z,0
2022-09-13T00:32:17.638Z,0
2022-09-13T00:33:17.620Z,0
2022-09-13T00:34:17.614Z,0
2022-09-13T00:35:17.603Z,0
2022-09-13T00:36:17.594Z,0
2022-09-13T00:37:17.582Z,0
2022-09-13T00:38:17.571Z,0
2022-09-13T00:39:17.556Z,0
2022-09-13T00:40:17.558Z,0
2022-09-13T00:41:17.541Z,0
2022-09-13T00:42:17.529Z,0
2022-09-13T00:43:17.514Z,0
2022-09-13T00:44:17.500Z,0
2022-09-13T00:45:17.498Z,0
2022-09-13T00:46:17.492Z,0
2022-09-13T00:47:17.470Z,0
2022-09-13T00:48:17.457Z,0
2022-09-13T00:49:17.452Z,0
2022-09-13T00:50:17.438Z,0
2022-09-13T00:51:17.430Z,0
2022-09-13T00:52:17.422Z,0
2022-09-13T00:53:17.410Z,0
2022-09-13T00:54:17.396Z,0
2022-09-13T00:55:17.392Z,0
2022-09-13T00:56:17.380Z,0
2022-09-13T00:57:17.368Z,0
2022-09-13T00:58:17.363Z,0
2022-09-13T00:59:17.344Z,0
2022-09-13T01:00:17.328Z,0
2022-09-13T01:01:17.364Z,0
2022-09-13T01:02:17.313Z,0
2022-09-13T01:03:17.299Z,0
2022-09-13T01:04:17.291Z,0
2022-09-13T01:05:17.280Z,0
2022-09-13T01:06:17.268Z,0
2022-09-13T01:07:17.264Z,0
2022-09-13T01:08:17.250Z,0
2022-09-13T01:09:17.232Z,0
2022-09-13T01:10:17.224Z,0
2022-09-13T01:11:17.209Z,0
2022-09-13T01:12:17.202Z,0
2022-09-13T01:13:17.188Z,0
2022-09-13T01:14:17.176Z,0
2022-09-13T01:15:17.169Z,0
2022-09-13T01:16:17.162Z,0
2022-09-13T01:17:17.153Z,0
2022-09-13T01:18:17.136Z,0
2022-09-13T01:19:17.125Z,0
2022-09-13T01:20:17.115Z,0
2022-09-13T01:21:17.106Z,0
2022-09-13T01:22:17.122Z,0
2022-09-13T01:23:17.147Z,0
2022-09-13T01:24:17.074Z,0
2022-09-13T01:25:17.061Z,0
2022-09-13T01:26:17.065Z,0
2022-09-13T01:27:17.043Z,0
2022-09-13T01:28:17.030Z,0
2022-09-13T01:29:17.023Z,0
2022-09-13T01:30:17.008Z,0
2022-09-13T01:31:17.000Z,0
2022-09-13T01:32:16.990Z,0
2022-09-13T01:33:16.985Z,0
2022-09-13T01:34:16.969Z,0
2022-09-13T01:35:16.956Z,0
2022-09-13T01:36:16.950Z,0
2022-09-13T01:37:16.939Z,0
2022-09-13T01:38:16.933Z,0
2022-09-13T01:39:16.924Z,0
2022-09-13T01:40:16.904Z,0
2022-09-13T01:41:16.887Z,0
2022-09-13T01:42:16.879Z,0
2022-09-13T01:43:16.874Z,0
2022-09-13T01:44:16.860Z,0
2022-09-13T01:45:16.863Z,0
2022-09-13T01:46:16.834Z,0
2022-09-13T01:47:16.821Z,0
2022-09-13T01:48:16.811Z,0
2022-09-13T01:49:16.804Z,0
2022-09-13T01:50:16.796Z,0
2022-09-13T01:51:16.784Z,0
2022-09-13T01:52:16.774Z,0
2022-09-13T01:53:16.770Z,0
2022-09-13T01:54:16.760Z,0
2022-09-13T01:55:16.738Z,0
2022-09-13T01:56:16.737Z,0
2022-09-13T01:57:16.721Z,0
2022-09-13T01:58:16.713Z,0
2022-09-13T01:59:16.695Z,0
2022-09-13T02:00:16.688Z,0
2022-09-13T02:01:16.678Z,0
2022-09-13T02:02:16.669Z,0
2022-09-13T02:03:16.654Z,0
2022-09-13T02:04:16.646Z,0
2022-09-13T02:05:16.634Z,0
2022-09-13T02:06:16.625Z,0
2022-09-13T02:07:16.613Z,0
2022-09-13T02:08:16.605Z,0
2022-09-13T02:09:16.591Z,0
2022-09-13T02:10:16.574Z,0
2022-09-13T02:11:16.577Z,0
2022-09-13T02:12:16.555Z,0
2022-09-13T02:13:16.548Z,0
2022-09-13T02:14:16.539Z,0
2022-09-13T02:15:16.527Z,0
2022-09-13T02:16:16.523Z,0
2022-09-13T02:17:16.504Z,0
2022-09-13T02:18:16.495Z,0
2022-09-13T02:19:16.493Z,0
2022-09-13T02:20:16.471Z,0
2022-09-13T02:21:16.465Z,0
2022-09-13T02:22:16.459Z,0
2022-09-13T02:23:16.438Z,0
2022-09-13T02:24:16.431Z,0
2022-09-13T02:25:16.428Z,0
2022-09-13T02:26:16.404Z,0
2022-09-13T02:27:16.399Z,0
2022-09-13T02:28:16.387Z,0
2022-09-13T02:29:16.371Z,0
2022-09-13T02:30:16.361Z,0
2022-09-13T02:31:16.365Z,0
2022-09-13T02:32:16.345Z,0
2022-09-13T02:33:16.331Z,0
2022-09-13T02:34:16.319Z,0
2022-09-13T02:35:16.307Z,0
2022-09-13T02:36:16.303Z,0
2022-09-13T02:37:16.299Z,0
2022-09-13T02:38:16.280Z,0
2022-09-13T02:39:16.266Z,0
2022-09-13T02:40:16.263Z,0
2022-09-13T02:41:16.247Z,0
2022-09-13T02:42:16.240Z,0
2022-09-13T02:43:16.221Z,0
2022-09-13T02:44:16.215Z,0
2022-09-13T02:45:16.203Z,0
2022-09-13T02:46:16.196Z,0
2022-09-13T02:47:16.183Z,0
2022-09-13T02:48:16.177Z,0
2022-09-13T02:49:16.164Z,0
2022-09-13T02:50:16.151Z,0
2022-09-13T02:51:16.140Z,0
2022-09-13T02:52:16.136Z,0
2022-09-13T02:53:16.120Z,0
2022-09-13T02:54:16.121Z,0
2022-09-13T02:55:16.103Z,0
2022-09-13T02:56:16.089Z,0
2022-09-13T02:57:16.074Z,0
2022-09-13T02:58:16.064Z,0
2022-09-13T02:59:16.063Z,0
2022-09-13T03:00:16.041Z,0
2022-09-13T03:01:16.035Z,0
2022-09-13T03:02:16.025Z,0
2022-09-13T03:03:16.008Z,0
2022-09-13T03:04:16.000Z,0
2022-09-13T03:05:16.003Z,0
2022-09-13T03:06:15.988Z,0
2022-09-13T03:07:15.971Z,0
2022-09-13T03:08:15.957Z,0
2022-09-13T03:09:15.948Z,0
2022-09-13T03:10:15.936Z,0
2022-09-13T03:11:15.923Z,0
2022-09-13T03:12:15.916Z,0
2022-09-13T03:13:15.902Z,0
2022-09-13T03:14:15.891Z,0
2022-09-13T03:15:15.880Z,0
2022-09-13T03:16:15.872Z,0
2022-09-13T03:17:15.863Z,0
2022-09-13T03:18:15.859Z,0
2022-09-13T03:19:15.839Z,0
2022-09-13T03:20:15.832Z,0
2022-09-13T03:21:15.821Z,0
2022-09-13T03:22:15.808Z,0
2022-09-13T03:23:15.804Z,0
2022-09-13T03:24:15.789Z,0
2022-09-13T03:25:15.775Z,0
2022-09-13T03:26:15.762Z,0
2022-09-13T03:27:15.768Z,0
2022-09-13T03:28:15.753Z,0
2022-09-13T03:29:15.753Z,0
2022-09-13T03:30:15.724Z,0
2022-09-13T03:31:15.723Z,0
2022-09-13T03:32:15.701Z,0
2022-09-13T03:33:15.689Z,0
2022-09-13T03:34:15.699Z,0
2022-09-13T03:35:15.667Z,0
2022-09-13T03:36:15.656Z,0
2022-09-13T03:37:15.643Z,0
2022-09-13T03:38:15.634Z,0
2022-09-13T03:39:15.627Z,0
2022-09-13T03:40:15.619Z,0
2022-09-13T03:41:15.601Z,0
2022-09-13T03:42:15.595Z,0
2022-09-13T03:43:15.584Z,0
2022-09-13T03:44:15.571Z,0
2022-09-13T03:45:15.565Z,0
2022-09-13T03:46:15.556Z,0
2022-09-13T03:47:15.539Z,0
2022-09-13T03:48:15.530Z,0
2022-09-13T03:49:15.520Z,0
2022-09-13T03:50:15.517Z,0
2022-09-13T03:51:15.496Z,0
2022-09-13T03:52:15.497Z,0
2022-09-13T03:53:15.476Z,0
2022-09-13T03:54:15.464Z,0
2022-09-13T03:55:15.517Z,0
2022-09-13T03:56:15.441Z,0
2022-09-13T03:57:15.433Z,0
2022-09-13T03:58:15.425Z,0
2022-09-13T03:59:15.413Z,0
2022-09-13T04:00:15.404Z,0
2022-09-13T04:01:15.389Z,0
2022-09-13T04:02:15.381Z,0
2022-09-13T04:03:15.368Z,0
2022-09-13T04:04:15.359Z,0
2022-09-13T04:05:15.345Z,0
2022-09-13T04:06:15.337Z,0
2022-09-13T04:07:15.323Z,0
2022-09-13T04:08:15.322Z,0
2022-09-13T04:09:15.305Z,0
2022-09-13T04:10:15.290Z,0
2022-09-13T04:11:15.283Z,0
2022-09-13T04:12:15.273Z,0
2022-09-13T04:13:15.264Z,0
2022-09-13T04:14:15.257Z,0
2022-09-13T04:15:15.238Z,0
2022-09-13T04:16:15.230Z,0
2022-09-13T04:17:15.225Z,0
2022-09-13T04:18:15.204Z,0
2022-09-13T04:19:15.194Z,0
2022-09-13T04:20:15.190Z,0
2022-09-13T04:21:15.177Z,0
2022-09-13T04:22:15.163Z,0
2022-09-13T04:23:15.154Z,0
2022-09-13T04:24:15.146Z,0
2022-09-13T04:25:15.140Z,0
2022-09-13T04:26:15.121Z,0
2022-09-13T04:27:15.111Z,0
2022-09-13T04:28:15.097Z,0
2022-09-13T04:29:15.092Z,0
2022-09-13T04:30:15.083Z,0
2022-09-13T04:31:15.065Z,0
2022-09-13T04:32:15.059Z,0
2022-09-13T04:33:15.043Z,0
2022-09-13T04:34:15.034Z,0
2022-09-13T04:35:15.021Z,0
2022-09-13T04:36:15.012Z,0
2022-09-13T04:37:15.008Z,0
2022-09-13T04:38:14.993Z,0
2022-09-13T04:39:14.979Z,0
2022-09-13T04:40:14.968Z,0
2022-09-13T04:41:14.958Z,0
2022-09-13T04:42:14.951Z,0
2022-09-13T04:43:14.958Z,0
2022-09-13T04:44:14.939Z,0
2022-09-13T04:45:14.931Z,0
2022-09-13T04:46:14.908Z,0
2022-09-13T04:47:14.892Z,0
2022-09-13T04:48:14.883Z,0
2022-09-13T04:49:14.877Z,0
2022-09-13T04:50:14.866Z,0
2022-09-13T04:51:14.855Z,0
2022-09-13T04:52:14.846Z,0
2022-09-13T04:53:14.831Z,0
2022-09-13T04:54:14.823Z,0
2022-09-13T04:55:14.817Z,0
2022-09-13T04:56:14.817Z,0
2022-09-13T04:57:14.788Z,0
2022-09-13T04:58:14.777Z,0
2022-09-13T04:59:14.772Z,0
2022-09-13T05:00:14.756Z,0
2022-09-13T05:01:14.764Z,0
2022-09-13T05:02:14.733Z,0
2022-09-13T05:03:14.733Z,0
2022-09-13T05:04:14.717Z,0
2022-09-13T05:05:14.705Z,0
2022-09-13T05:06:14.695Z,0
2022-09-13T05:07:14.692Z,0
2022-09-13T05:08:14.692Z,0
2022-09-13T05:09:14.658Z,0
2022-09-13T05:10:14.649Z,0
2022-09-13T05:11:14.638Z,5.62
2022-09-13T05:12:14.627Z,5.62
2022-09-13T05:13:14.621Z,5.62
2022-09-13T05:14:14.607Z,5.62
2022-09-13T05:15:14.594Z,5.62
2022-09-13T05:16:14.587Z,5.62
2022-09-13T05:17:14.574Z,5.62
2022-09-13T05:18:14.586Z,5.62
2022-09-13T05:19:14.566Z,5.62
2022-09-13T05:20:14.541Z,5.62
2022-09-13T05:21:14.538Z,5.62
2022-09-13T05:22:14.578Z,5.62
2022-09-13T05:23:14.509Z,5.62
2022-09-13T05:24:14.500Z,5.62
2022-09-13T05:25:14.493Z,11.25
2022-09-13T05:26:14.477Z,11.25
2022-09-13T05:27:14.470Z,11.25
2022-09-13T05:28:14.454Z,11.25
2022-09-13T05:29:14.447Z,11.25
2022-09-13T05:30:14.483Z,11.25
2022-09-13T05:31:14.422Z,11.25
2022-09-13T05:32:14.416Z,11.25
2022-09-13T05:33:14.403Z,11.25
2022-09-13T05:34:15.182Z,11.25
2022-09-13T05:35:14.385Z,11.25
2022-09-13T05:36:14.369Z,11.25
2022-09-13T05:37:14.360Z,11.25
2022-09-13T05:38:14.349Z,11.25
2022-09-13T05:39:14.344Z,11.25
2022-09-13T05:40:14.337Z,11.25
2022-09-13T05:41:14.330Z,11.25
2022-09-13T05:42:14.310Z,11.25
2022-09-13T05:43:14.300Z,16.88
2022-09-13T05:44:14.287Z,16.88
2022-09-13T05:45:14.274Z,16.88
2022-09-13T05:46:14.274Z,16.88
2022-09-13T05:47:14.252Z,16.88
2022-09-13T05:48:14.247Z,16.88
2022-09-13T05:49:14.231Z,22.5
2022-09-13T05:50:14.223Z,22.5
2022-09-13T05:51:14.215Z,22.5
2022-09-13T05:52:14.203Z,22.5
2022-09-13T05:53:14.189Z,22.5
2022-09-13T05:54:14.181Z,22.5
2022-09-13T05:55:14.171Z,22.5
2022-09-13T05:56:14.157Z,22.5
2022-09-13T05:57:14.147Z,22.5
2022-09-13T05:58:14.140Z,22.5
2022-09-13T05:59:14.128Z,22.5
2022-09-13T06:00:14.114Z,22.5
2022-09-13T06:01:14.110Z,22.5
2022-09-13T06:02:14.143Z,22.5
2022-09-13T06:03:14.085Z,22.5
2022-09-13T06:04:14.073Z,28.12
2022-09-13T06:05:14.058Z,28.12
2022-09-13T06:06:14.053Z,28.12
2022-09-13T06:07:14.037Z,28.12
2022-09-13T06:08:14.026Z,28.12
2022-09-13T06:09:14.020Z,28.12
2022-09-13T06:10:14.010Z,28.12
2022-09-13T06:11:13.999Z,33.75
2022-09-13T06:12:13.997Z,33.75
2022-09-13T06:13:13.984Z,33.75
2022-09-13T06:14:13.999Z,39.38
2022-09-13T06:15:13.976Z,39.38
2022-09-13T06:16:13.950Z,39.38
2022-09-13T06:17:13.968Z,45
2022-09-13T06:18:13.943Z,45
2022-09-13T06:19:13.914Z,45
2022-09-13T06:20:13.901Z,45
2022-09-13T06:21:13.890Z,45
2022-09-13T06:22:13.885Z,45
2022-09-13T06:23:13.920Z,45
2022-09-13T06:24:13.857Z,50.62
2022-09-13T06:25:13.843Z,50.62
2022-09-13T06:26:13.838Z,56.25
2022-09-13T06:27:13.827Z,56.25
2022-09-13T06:28:13.810Z,56.25
2022-09-13T06:29:13.806Z,56.25
2022-09-13T06:30:13.800Z,56.25
2022-09-13T06:31:13.782Z,56.25
2022-09-13T06:32:13.768Z,56.25
2022-09-13T06:33:13.786Z,50.62
2022-09-13T06:34:13.748Z,50.62
2022-09-13T06:35:13.739Z,50.62
2022-09-13T06:36:13.729Z,67.5
2022-09-13T06:37:13.721Z,56.25
2022-09-13T06:38:13.707Z,56.25
2022-09-13T06:39:13.700Z,61.88
2022-09-13T06:40:14.684Z,61.88
2022-09-13T06:41:13.674Z,61.88
2022-09-13T06:42:13.695Z,67.5
2022-09-13T06:43:13.657Z,73.12
2022-09-13T06:44:13.648Z,78.75
2022-09-13T06:45:13.649Z,90
2022-09-13T06:46:13.649Z,95.62
2022-09-13T06:47:13.612Z,101.25
2022-09-13T06:48:13.599Z,90
2022-09-13T06:49:13.594Z,78.75
2022-09-13T06:50:13.602Z,78.75
2022-09-13T06:51:13.574Z,78.75
2022-09-13T06:52:13.574Z,78.75
2022-09-13T06:53:13.542Z,84.38
2022-09-13T06:54:13.537Z,84.38
2022-09-13T06:55:13.523Z,84.38
2022-09-13T06:56:13.515Z,90
2022-09-13T06:57:13.526Z,90
2022-09-13T06:58:13.505Z,90
2022-09-13T06:59:13.481Z,101.25
2022-09-13T07:00:13.472Z,95.62
2022-09-13T07:01:13.460Z,129.38
2022-09-13T07:02:13.452Z,151.88
2022-09-13T07:03:13.450Z,163.12
2022-09-13T07:04:13.451Z,163.12
2022-09-13T07:05:13.415Z,157.5
2022-09-13T07:06:13.409Z,112.5
2022-09-13T07:07:13.395Z,112.5
2022-09-13T07:08:13.389Z,112.5
2022-09-13T07:09:13.394Z,95.62
2022-09-13T07:10:13.371Z,95.62
2022-09-13T07:11:13.353Z,106.88
2022-09-13T07:12:13.355Z,118.12
2022-09-13T07:13:13.332Z,112.5
2022-09-13T07:14:13.318Z,123.75
2022-09-13T07:15:13.324Z,101.25
2022-09-13T07:16:13.295Z,95.62
2022-09-13T07:17:13.287Z,95.62
2022-09-13T07:18:13.328Z,84.38
2022-09-13T07:19:13.261Z,78.75
2022-09-13T07:20:13.256Z,73.12
2022-09-13T07:21:13.241Z,73.12
2022-09-13T07:22:13.229Z,90
2022-09-13T07:23:13.222Z,191.25
2022-09-13T07:24:13.210Z,196.88
2022-09-13T07:25:13.197Z,208.12
2022-09-13T07:26:13.197Z,213.75
2022-09-13T07:27:13.175Z,219.38
2022-09-13T07:28:13.170Z,236.25
2022-09-13T07:29:13.160Z,241.88
2022-09-13T07:30:13.147Z,264.38
2022-09-13T07:31:13.143Z,236.25
2022-09-13T07:32:13.140Z,191.25
2022-09-13T07:33:13.115Z,196.88
2022-09-13T07:34:13.102Z,163.12
2022-09-13T07:35:13.094Z,118.12
2022-09-13T07:36:13.091Z,106.88
2022-09-13T07:37:13.072Z,101.25
2022-09-13T07:38:13.058Z,84.38
2022-09-13T07:39:13.059Z,73.12
2022-09-13T07:40:13.034Z,67.5
2022-09-13T07:41:13.030Z,67.5
2022-09-13T07:42:13.024Z,73.12
2022-09-13T07:43:13.009Z,73.12
2022-09-13T07:44:12.992Z,73.12
2022-09-13T07:45:12.990Z,73.12
2022-09-13T07:46:12.981Z,73.12
2022-09-13T07:47:12.972Z,73.12
2022-09-13T07:48:12.966Z,73.12
2022-09-13T07:49:12.948Z,73.12
2022-09-13T07:50:12.932Z,73.12
2022-09-13T07:51:12.924Z,73.12
2022-09-13T07:52:12.915Z,73.12
2022-09-13T07:53:12.925Z,73.12
2022-09-13T07:54:12.887Z,67.5
2022-09-13T07:55:12.887Z,67.5
2022-09-13T07:56:12.865Z,61.88
2022-09-13T07:57:12.859Z,56.25
2022-09-13T07:58:12.848Z,56.25
2022-09-13T07:59:12.844Z,56.25
2022-09-13T08:00:12.831Z,56.25
2022-09-13T08:01:12.821Z,61.88
2022-09-13T08:02:12.818Z,67.5
2022-09-13T08:03:12.797Z,73.12
2022-09-13T08:04:12.786Z,73.12
2022-09-13T08:05:12.789Z,67.5
2022-09-13T08:06:12.760Z,73.12
2022-09-13T08:07:12.748Z,73.12
2022-09-13T08:08:12.739Z,73.12
2022-09-13T08:09:12.734Z,78.75
2022-09-13T08:10:12.718Z,78.75
2022-09-13T08:11:12.714Z,78.75
2022-09-13T08:12:12.698Z,73.12
2022-09-13T08:13:12.699Z,73.12
2022-09-13T08:14:12.677Z,61.88
2022-09-13T08:15:12.663Z,56.25
2022-09-13T08:16:12.656Z,50.62
2022-09-13T08:17:12.646Z,50.62
2022-09-13T08:18:12.654Z,56.25
2022-09-13T08:19:12.625Z,61.88
2022-09-13T08:20:12.610Z,61.88
2022-09-13T08:21:12.597Z,61.88
2022-09-13T08:22:12.599Z,61.88
2022-09-13T08:23:12.582Z,61.88
2022-09-13T08:24:12.578Z,56.25
2022-09-13T08:25:12.558Z,56.25
2022-09-13T08:26:12.555Z,56.25
2022-09-13T08:27:12.545Z,56.25
2022-09-13T08:28:12.531Z,56.25
2022-09-13T08:29:12.543Z,61.88
2022-09-13T08:30:12.504Z,67.5
2022-09-13T08:31:12.517Z,67.5
2022-09-13T08:32:12.484Z,73.12
2022-09-13T08:33:12.476Z,73.12
2022-09-13T08:34:12.460Z,73.12
2022-09-13T08:35:12.454Z,67.5
2022-09-13T08:36:12.462Z,67.5
2022-09-13T08:37:12.430Z,67.5
2022-09-13T08:38:12.416Z,67.5
2022-09-13T08:39:12.411Z,61.88
2022-09-13T08:40:12.394Z,61.88
2022-09-13T08:41:12.392Z,56.25
2022-09-13T08:42:12.396Z,56.25
2022-09-13T08:43:12.390Z,50.62
2022-09-13T08:44:12.353Z,45
2022-09-13T08:45:12.439Z,50.62
2022-09-13T08:46:12.336Z,45
2022-09-13T08:47:12.326Z,50.62
2022-09-13T08:48:12.311Z,50.62
2022-09-13T08:49:12.305Z,56.25
2022-09-13T08:50:12.287Z,56.25
2022-09-13T08:51:12.289Z,61.88
2022-09-13T08:52:12.288Z,61.88
2022-09-13T08:53:12.257Z,61.88
2022-09-13T08:54:12.246Z,56.25
2022-09-13T08:55:12.232Z,56.25
2022-09-13T08:56:12.242Z,56.25
2022-09-13T08:57:12.221Z,61.88
2022-09-13T08:58:12.330Z,67.5
2022-09-13T08:59:12.190Z,67.5
2022-09-13T09:00:12.183Z,73.12
2022-09-13T09:01:12.169Z,73.12
2022-09-13T09:02:12.157Z,78.75
2022-09-13T09:03:12.154Z,78.75
2022-09-13T09:04:12.140Z,73.12
2022-09-13T09:05:12.180Z,67.5
2022-09-13T09:06:12.117Z,61.88
2022-09-13T09:07:12.145Z,61.88
2022-09-13T09:08:12.103Z,61.88
2022-09-13T09:09:12.088Z,61.88
2022-09-13T09:10:12.078Z,56.25
2022-09-13T09:11:12.062Z,56.25
2022-09-13T09:12:12.067Z,56.25
2022-09-13T09:13:12.043Z,56.25
2022-09-13T09:14:12.028Z,67.5
2022-09-13T09:15:12.021Z,67.5
2022-09-13T09:16:12.036Z,67.5
2022-09-13T09:17:11.999Z,73.12
2022-09-13T09:18:11.997Z,73.12
2022-09-13T09:19:11.991Z,67.5
2022-09-13T09:20:11.988Z,73.12
2022-09-13T09:21:11.959Z,73.12
2022-09-13T09:22:11.948Z,78.75
2022-09-13T09:23:11.949Z,78.75
2022-09-13T09:24:11.950Z,73.12
2022-09-13T09:25:11.926Z,73.12
2022-09-13T09:26:11.912Z,73.12
2022-09-13T09:27:11.902Z,73.12
2022-09-13T09:28:11.888Z,67.5
2022-09-13T09:29:11.872Z,61.88
2022-09-13T09:30:11.863Z,56.25
2022-09-13T09:31:11.920Z,50.62
2022-09-13T09:32:11.839Z,45
2022-09-13T09:33:11.852Z,39.38
2022-09-13T09:34:11.892Z,45
2022-09-13T09:35:11.815Z,39.38
2022-09-13T09:36:11.798Z,39.38
2022-09-13T09:37:11.793Z,39.38
2022-09-13T09:38:11.796Z,45
2022-09-13T09:39:11.762Z,45
2022-09-13T09:40:11.756Z,33.75
2022-09-13T09:41:11.786Z,33.75
2022-09-13T09:42:11.881Z,39.38
2022-09-13T09:43:11.724Z,50.62
2022-09-13T09:44:11.713Z,50.62
2022-09-13T09:45:11.708Z,45
2022-09-13T09:46:11.722Z,45
2022-09-13T09:47:11.680Z,56.25
2022-09-13T09:48:11.666Z,56.25
2022-09-13T09:49:11.678Z,61.88
2022-09-13T09:50:11.667Z,56.25
2022-09-13T09:51:11.640Z,56.25
2022-09-13T09:52:11.621Z,67.5
2022-09-13T09:53:11.624Z,73.12
2022-09-13T09:54:11.617Z,78.75
2022-09-13T09:55:11.592Z,78.75
2022-09-13T09:56:11.583Z,73.12
2022-09-13T09:57:11.627Z,67.5
2022-09-13T09:58:11.560Z,73.12
2022-09-13T09:59:11.550Z,84.38
2022-09-13T10:00:11.743Z,84.38
2022-09-13T10:01:11.530Z,101.25
2022-09-13T10:02:11.519Z,129.38
2022-09-13T10:03:11.552Z,129.38
2022-09-13T10:04:11.516Z,112.5
2022-09-13T10:05:11.488Z,95.62
2022-09-13T10:06:11.482Z,90
2022-09-13T10:07:11.463Z,84.38
2022-09-13T10:08:11.491Z,73.12
2022-09-13T10:09:11.442Z,73.12
2022-09-13T10:10:11.432Z,78.75
2022-09-13T10:11:11.433Z,78.75
2022-09-13T10:12:11.408Z,95.62
2022-09-13T10:13:11.398Z,106.88
2022-09-13T10:14:11.391Z,112.5
2022-09-13T10:15:11.400Z,101.25
2022-09-13T10:16:11.371Z,84.38
2022-09-13T10:17:11.397Z,67.5
2022-09-13T10:18:11.349Z,50.62
2022-09-13T10:19:11.335Z,56.25
2022-09-13T10:20:11.325Z,78.75
2022-09-13T10:21:11.316Z,78.75
2022-09-13T10:22:11.303Z,78.75
2022-09-13T10:23:11.323Z,78.75
2022-09-13T10:24:11.289Z,78.75
2022-09-13T10:25:11.310Z,84.38
2022-09-13T10:26:11.266Z,95.62
2022-09-13T10:27:11.251Z,101.25
2022-09-13T10:28:11.239Z,118.12
2022-09-13T10:29:11.227Z,123.75
2022-09-13T10:30:11.219Z,135
2022-09-13T10:31:11.224Z,129.38
2022-09-13T10:32:11.218Z,112.5
2022-09-13T10:33:11.192Z,101.25
2022-09-13T10:34:11.195Z,101.25
2022-09-13T10:35:11.167Z,106.88
2022-09-13T10:36:11.162Z,123.75
2022-09-13T10:37:11.140Z,135
2022-09-13T10:38:11.209Z,129.38
2022-09-13T10:39:11.122Z,118.12
2022-09-13T10:40:11.121Z,101.25
2022-09-13T10:41:11.099Z,95.62
2022-09-13T10:42:11.090Z,101.25
2022-09-13T10:43:11.081Z,123.75
2022-09-13T10:44:11.075Z,135
2022-09-13T10:45:11.059Z,123.75
2022-09-13T10:46:11.055Z,140.62
2022-09-13T10:47:11.046Z,151.88
2022-09-13T10:48:11.050Z,146.25
2022-09-13T10:49:11.022Z,168.75
2022-09-13T10:50:11.021Z,298.12
2022-09-13T10:51:10.989Z,180
2022-09-13T10:52:10.982Z,185.62
2022-09-13T10:53:10.969Z,208.12
2022-09-13T10:54:10.971Z,236.25
2022-09-13T10:55:10.957Z,219.38
2022-09-13T10:56:10.945Z,208.12
2022-09-13T10:57:10.940Z,247.5
2022-09-13T10:58:10.944Z,483.75
2022-09-13T10:59:10.924Z,410.62
2022-09-13T11:00:10.895Z,961.88
2022-09-13T11:01:10.906Z,444.38
2022-09-13T11:02:10.882Z,388.12
2022-09-13T11:03:10.864Z,641.25
2022-09-13T11:04:10.858Z,225
2022-09-13T11:05:10.884Z,168.75
2022-09-13T11:06:10.829Z,146.25
2022-09-13T11:07:10.825Z,140.62
2022-09-13T11:08:10.850Z,140.62
2022-09-13T11:09:10.803Z,140.62
2022-09-13T11:10:10.794Z,140.62
2022-09-13T11:11:10.803Z,118.12
2022-09-13T11:12:10.776Z,101.25
2022-09-13T11:13:10.760Z,95.62
2022-09-13T11:14:10.778Z,95.62
2022-09-13T11:15:10.747Z,106.88
2022-09-13T11:16:10.729Z,106.88
2022-09-13T11:17:11.629Z,95.62
2022-09-13T11:18:10.704Z,84.38
2022-09-13T11:19:10.699Z,78.75
2022-09-13T11:20:10.685Z,78.75
2022-09-13T11:21:10.679Z,78.75
2022-09-13T11:22:10.740Z,78.75
2022-09-13T11:23:10.662Z,84.38
2022-09-13T11:24:10.639Z,90
2022-09-13T11:25:10.635Z,101.25
2022-09-13T11:26:10.628Z,95.62
2022-09-13T11:27:10.605Z,90
2022-09-13T11:28:10.618Z,84.38
2022-09-13T11:29:10.611Z,78.75
2022-09-13T11:30:10.575Z,78.75
2022-09-13T11:31:10.559Z,78.75
2022-09-13T11:32:10.552Z,73.12
2022-09-13T11:33:10.556Z,67.5
2022-09-13T11:34:10.532Z,73.12
2022-09-13T11:35:10.520Z,90
2022-09-13T11:36:10.511Z,106.88
2022-09-13T11:37:10.514Z,106.88
2022-09-13T11:38:10.511Z,90
2022-09-13T11:39:10.523Z,78.75
2022-09-13T11:40:10.468Z,61.88
2022-09-13T11:41:10.469Z,61.88
2022-09-13T11:42:10.439Z,61.88
2022-09-13T11:43:10.439Z,61.88
2022-09-13T11:44:10.442Z,67.5
2022-09-13T11:45:10.417Z,67.5
2022-09-13T11:46:10.414Z,67.5
2022-09-13T11:47:10.405Z,67.5
2022-09-13T11:48:10.380Z,61.88
2022-09-13T11:49:10.376Z,61.88
2022-09-13T11:50:10.359Z,73.12
2022-09-13T11:51:10.344Z,78.75
2022-09-13T11:52:10.338Z,73.12
2022-09-13T11:53:10.330Z,78.75
2022-09-13T11:54:10.346Z,78.75
2022-09-13T11:55:10.303Z,73.12
2022-09-13T11:56:10.293Z,61.88
2022-09-13T11:57:10.278Z,56.25
2022-09-13T11:58:10.268Z,61.88
2022-09-13T11:59:10.269Z,73.12
2022-09-13T12:00:10.249Z,73.12
2022-09-13T12:01:10.233Z,67.5
2022-09-13T12:02:10.229Z,78.75
2022-09-13T12:03:10.219Z,101.25
2022-09-13T12:04:10.206Z,123.75
2022-09-13T12:05:10.196Z,95.62
2022-09-13T12:06:10.185Z,73.12
2022-09-13T12:07:10.225Z,61.88
2022-09-13T12:08:10.161Z,56.25
2022-09-13T12:09:10.157Z,67.5
2022-09-13T12:10:10.145Z,73.12
2022-09-13T12:11:10.135Z,50.62
2022-09-13T12:12:10.123Z,39.38
2022-09-13T12:13:10.107Z,39.38
2022-09-13T12:14:10.097Z,45
2022-09-13T12:15:10.091Z,50.62
2022-09-13T12:16:10.134Z,78.75
2022-09-13T12:17:11.083Z,78.75
2022-09-13T12:18:10.074Z,73.12
2022-09-13T12:19:10.049Z,67.5
2022-09-13T12:20:10.034Z,56.25
2022-09-13T12:21:10.036Z,61.88
2022-09-13T12:22:10.020Z,67.5
2022-09-13T12:23:10.011Z,78.75
2022-09-13T12:24:09.993Z,84.38
2022-09-13T12:25:09.988Z,84.38
2022-09-13T12:26:09.976Z,56.25
2022-09-13T12:27:09.977Z,45
2022-09-13T12:28:09.950Z,45
2022-09-13T12:29:09.948Z,50.62
2022-09-13T12:30:09.956Z,50.62
2022-09-13T12:31:09.918Z,50.62
2022-09-13T12:32:09.912Z,45
2022-09-13T12:33:09.901Z,45
2022-09-13T12:34:09.894Z,45
2022-09-13T12:35:09.876Z,50.62
2022-09-13T12:36:09.882Z,45
2022-09-13T12:37:09.861Z,45
2022-09-13T12:38:09.852Z,39.38
2022-09-13T12:39:09.837Z,39.38
2022-09-13T12:40:09.870Z,39.38
2022-09-13T12:41:09.815Z,39.38
2022-09-13T12:42:09.806Z,39.38
2022-09-13T12:43:09.807Z,45
2022-09-13T12:44:09.785Z,45
2022-09-13T12:45:09.771Z,45
2022-09-13T12:46:09.768Z,39.38
2022-09-13T12:47:09.757Z,33.75
2022-09-13T12:48:09.743Z,28.12
2022-09-13T12:49:09.732Z,28.12
2022-09-13T12:50:09.721Z,39.38
2022-09-13T12:51:09.741Z,50.62
2022-09-13T12:52:09.748Z,45
2022-09-13T12:53:09.691Z,39.38
2022-09-13T12:54:09.683Z,45
2022-09-13T12:55:09.671Z,56.25
2022-09-13T12:56:09.674Z,73.12
2022-09-13T12:57:09.649Z,73.12
2022-09-13T12:58:09.635Z,73.12
2022-09-13T12:59:09.635Z,78.75
2022-09-13T13:00:09.612Z,78.75
2022-09-13T13:01:09.605Z,78.75
2022-09-13T13:02:09.597Z,84.38
2022-09-13T13:03:09.595Z,101.25
2022-09-13T13:04:09.571Z,101.25
2022-09-13T13:05:09.597Z,101.25
2022-09-13T13:06:09.580Z,95.62
2022-09-13T13:07:09.539Z,95.62
2022-09-13T13:08:09.533Z,90
2022-09-13T13:09:09.523Z,90
2022-09-13T13:10:09.516Z,84.38
2022-09-13T13:11:09.505Z,67.5
2022-09-13T13:12:09.493Z,56.25
2022-09-13T13:13:09.478Z,50.62
2022-09-13T13:14:09.470Z,45
2022-09-13T13:15:09.478Z,39.38
2022-09-13T13:16:09.446Z,45
2022-09-13T13:17:09.439Z,56.25
2022-09-13T13:18:09.428Z,67.5
2022-09-13T13:19:09.413Z,67.5
2022-09-13T13:20:09.405Z,78.75
2022-09-13T13:21:09.397Z,84.38
2022-09-13T13:22:09.385Z,84.38
2022-09-13T13:23:09.375Z,90
2022-09-13T13:24:09.365Z,106.88
2022-09-13T13:25:09.356Z,106.88
2022-09-13T13:26:09.339Z,106.88
2022-09-13T13:27:09.333Z,106.88
2022-09-13T13:28:09.351Z,106.88
2022-09-13T13:29:09.316Z,106.88
2022-09-13T13:30:09.307Z,112.5
2022-09-13T13:31:09.295Z,123.75
2022-09-13T13:32:09.283Z,140.62
2022-09-13T13:33:09.265Z,146.25
2022-09-13T13:34:09.280Z,140.62
2022-09-13T13:35:09.251Z,146.25
2022-09-13T13:36:09.240Z,151.88